sensor_id;sensor_type;location;lat;lon;timestamp;pressure;altitude;pressure_sealevel;temperature;humidity
59411;BME280;45215;32.610;-115.482;2022-08-03T00:01:34;100713.88;;;21.35;38.46
59411;BME280;45215;32.610;-115.482;2022-08-03T00:04:00;100705.56;;;21.07;37.21
59411;BME280;45215;32.610;-115.482;2022-08-03T00:06:26;100711.38;;;21.33;44.09
59411;BME280;45215;32.610;-115.482;2022-08-03T00:08:51;100713.59;;;21.74;42.80
59411;BME280;45215;32.610;-115.482;2022-08-03T00:11:17;100703.28;;;21.48;38.98
59411;BME280;45215;32.610;-115.482;2022-08-03T00:13:43;100701.75;;;21.16;37.32
59411;BME280;45215;32.610;-115.482;2022-08-03T00:16:09;100698.88;;;21.03;40.52
59411;BME280;45215;32.610;-115.482;2022-08-03T00:18:35;100699.81;;;21.69;45.46
59411;BME280;45215;32.610;-115.482;2022-08-03T00:21:02;100688.72;;;21.64;39.97
59411;BME280;45215;32.610;-115.482;2022-08-03T00:23:28;100680.00;;;21.32;37.91
59411;BME280;45215;32.610;-115.482;2022-08-03T00:25:53;100681.50;;;21.05;36.89
59411;BME280;45215;32.610;-115.482;2022-08-03T00:28:19;100682.69;;;21.47;45.28
59411;BME280;45215;32.610;-115.482;2022-08-03T00:30:45;100673.75;;;21.76;41.25
59411;BME280;45215;32.610;-115.482;2022-08-03T00:33:11;100669.13;;;21.41;38.63
59411;BME280;45215;32.610;-115.482;2022-08-03T00:35:37;100666.97;;;21.06;37.21
59411;BME280;45215;32.610;-115.482;2022-08-03T00:38:03;100663.66;;;21.19;43.45
59411;BME280;45215;32.610;-115.482;2022-08-03T00:40:30;100669.16;;;21.77;43.79
59411;BME280;45215;32.610;-115.482;2022-08-03T00:42:59;100663.66;;;21.70;39.81
59411;BME280;45215;32.610;-115.482;2022-08-03T00:45:26;100657.88;;;21.37;38.37
59411;BME280;45215;32.610;-115.482;2022-08-03T00:47:53;100647.63;;;21.17;39.13
59411;BME280;45215;32.610;-115.482;2022-08-03T00:50:19;100659.59;;;21.74;46.23
59411;BME280;45215;32.610;-115.482;2022-08-03T00:52:47;100654.91;;;21.83;41.12
59411;BME280;45215;32.610;-115.482;2022-08-03T00:55:13;100644.34;;;21.52;38.83
59411;BME280;45215;32.610;-115.482;2022-08-03T00:57:39;100635.25;;;21.23;37.37
59411;BME280;45215;32.610;-115.482;2022-08-03T01:00:05;100642.31;;;21.54;44.63
59411;BME280;45215;32.610;-115.482;2022-08-03T01:02:32;100642.31;;;21.90;42.64
59411;BME280;45215;32.610;-115.482;2022-08-03T01:04:57;100643.22;;;21.61;38.84
59411;BME280;45215;32.610;-115.482;2022-08-03T01:07:40;100632.47;;;21.31;37.19
59411;BME280;45215;32.610;-115.482;2022-08-03T01:18:06;100626.41;;;21.29;37.69
59411;BME280;45215;32.610;-115.482;2022-08-03T01:20:35;100627.81;;;21.25;41.41
59411;BME280;45215;32.610;-115.482;2022-08-03T01:23:27;100627.38;;;21.88;44.30
59411;BME280;45215;32.610;-115.482;2022-08-03T01:31:18;100644.47;;;21.29;43.12
59411;BME280;45215;32.610;-115.482;2022-08-03T01:33:48;100635.25;;;21.89;43.76
59411;BME280;45215;32.610;-115.482;2022-08-03T01:36:18;100640.06;;;21.57;39.35
59411;BME280;45215;32.610;-115.482;2022-08-03T01:38:53;100638.63;;;21.25;37.99
59411;BME280;45215;32.610;-115.482;2022-08-03T01:41:29;100637.75;;;21.10;40.89
59411;BME280;45215;32.610;-115.482;2022-08-03T01:43:56;100643.19;;;21.76;45.41
59411;BME280;45215;32.610;-115.482;2022-08-03T01:46:23;100645.91;;;21.61;40.09
59411;BME280;45215;32.610;-115.482;2022-08-03T01:48:50;100646.78;;;21.17;38.21
59411;BME280;45215;32.610;-115.482;2022-08-03T01:51:17;100650.00;;;20.98;37.34
59411;BME280;45215;32.610;-115.482;2022-08-03T01:53:44;100642.69;;;21.51;45.56
59411;BME280;45215;32.610;-115.482;2022-08-03T01:56:10;100651.59;;;21.66;40.83
59411;BME280;45215;32.610;-115.482;2022-08-03T01:58:37;100651.06;;;21.26;38.45
59411;BME280;45215;32.610;-115.482;2022-08-03T02:01:05;100652.88;;;20.96;37.42
59411;BME280;45215;32.610;-115.482;2022-08-03T02:03:33;100650.16;;;21.19;43.95
59411;BME280;45215;32.610;-115.482;2022-08-03T02:06:01;100659.50;;;21.68;42.56
59411;BME280;45215;32.610;-115.482;2022-08-03T02:08:27;100651.34;;;21.31;38.98
59411;BME280;45215;32.610;-115.482;2022-08-03T02:10:54;100644.78;;;20.96;37.68
59411;BME280;45215;32.610;-115.482;2022-08-03T02:13:22;100659.59;;;21.00;42.49
59411;BME280;45215;32.610;-115.482;2022-08-03T02:15:49;100643.75;;;21.71;44.77
59411;BME280;45215;32.610;-115.482;2022-08-03T02:18:17;100671.25;;;21.60;40.31
59411;BME280;45215;32.610;-115.482;2022-08-03T02:20:43;100668.53;;;21.30;37.76
59411;BME280;45215;32.610;-115.482;2022-08-03T02:23:09;100672.53;;;21.05;38.49
59411;BME280;45215;32.610;-115.482;2022-08-03T02:25:37;100684.38;;;21.63;45.73
59411;BME280;45215;32.610;-115.482;2022-08-03T02:28:07;100682.31;;;21.65;40.50
59411;BME280;45215;32.610;-115.482;2022-08-03T02:30:36;100685.78;;;21.29;37.97
59411;BME280;45215;32.610;-115.482;2022-08-03T02:33:27;100686.34;;;21.02;36.58
59411;BME280;45215;32.610;-115.482;2022-08-03T02:35:51;100685.00;;;21.50;44.73
59411;BME280;45215;32.610;-115.482;2022-08-03T02:38:19;100691.03;;;21.67;40.31
59411;BME280;45215;32.610;-115.482;2022-08-03T02:40:45;100693.56;;;21.24;38.31
59411;BME280;45215;32.610;-115.482;2022-08-03T02:43:14;100689.63;;;20.97;36.84
59411;BME280;45215;32.610;-115.482;2022-08-03T02:45:43;100702.41;;;21.33;44.35
59411;BME280;45215;32.610;-115.482;2022-08-03T02:48:10;100699.81;;;21.69;41.11
59411;BME280;45215;32.610;-115.482;2022-08-03T02:50:36;100701.97;;;21.29;38.35
59411;BME280;45215;32.610;-115.482;2022-08-03T02:53:02;100699.56;;;20.97;36.86
59411;BME280;45215;32.610;-115.482;2022-08-03T02:55:28;100706.59;;;21.06;42.25
59411;BME280;45215;32.610;-115.482;2022-08-03T02:57:55;100707.53;;;21.57;43.14
59411;BME280;45215;32.610;-115.482;2022-08-03T03:00:22;100709.78;;;21.39;39.08
59411;BME280;45215;32.610;-115.482;2022-08-03T03:02:48;100712.06;;;21.12;37.20
59411;BME280;45215;32.610;-115.482;2022-08-03T03:05:15;100710.28;;;21.05;40.15
59411;BME280;45215;32.610;-115.482;2022-08-03T03:07:41;100720.00;;;21.58;44.55
59411;BME280;45215;32.610;-115.482;2022-08-03T03:10:07;100709.31;;;21.50;39.60
59411;BME280;45215;32.610;-115.482;2022-08-03T03:12:34;100708.19;;;21.15;37.26
59411;BME280;45215;32.610;-115.482;2022-08-03T03:15:02;100715.63;;;20.90;37.58
59411;BME280;45215;32.610;-115.482;2022-08-03T03:17:27;100730.16;;;21.42;44.84
59411;BME280;45215;32.610;-115.482;2022-08-03T03:19:55;100728.03;;;21.52;40.20
59411;BME280;45215;32.610;-115.482;2022-08-03T03:22:21;100724.00;;;21.18;37.54
59411;BME280;45215;32.610;-115.482;2022-08-03T03:24:47;100719.16;;;20.90;36.10
59411;BME280;45215;32.610;-115.482;2022-08-03T03:27:16;100720.56;;;21.24;43.71
59411;BME280;45215;32.610;-115.482;2022-08-03T03:29:42;100719.94;;;21.52;40.59
59411;BME280;45215;32.610;-115.482;2022-08-03T03:32:08;100723.16;;;21.17;38.03
59411;BME280;45215;32.610;-115.482;2022-08-03T03:34:34;100718.88;;;20.85;36.37
59411;BME280;45215;32.610;-115.482;2022-08-03T03:37:00;100733.59;;;20.98;42.44
59411;BME280;45215;32.610;-115.482;2022-08-03T03:39:26;100740.03;;;21.49;42.16
59411;BME280;45215;32.610;-115.482;2022-08-03T03:41:52;100746.03;;;21.22;38.79
59411;BME280;45215;32.610;-115.482;2022-08-03T03:44:18;100745.50;;;20.88;36.55
59411;BME280;45215;32.610;-115.482;2022-08-03T03:46:44;100743.31;;;20.84;41.03
59411;BME280;45215;32.610;-115.482;2022-08-03T03:49:10;100754.25;;;21.43;43.74
59411;BME280;45215;32.610;-115.482;2022-08-03T03:51:36;100753.75;;;21.25;38.82
59411;BME280;45215;32.610;-115.482;2022-08-03T03:54:03;100752.53;;;20.89;36.61
59411;BME280;45215;32.610;-115.482;2022-08-03T03:56:31;100755.94;;;20.68;38.78
59411;BME280;45215;32.610;-115.482;2022-08-03T03:58:57;100759.16;;;21.25;43.96
59411;BME280;45215;32.610;-115.482;2022-08-03T04:01:23;100756.47;;;21.25;39.20
59411;BME280;45215;32.610;-115.482;2022-08-03T04:03:49;100750.88;;;20.88;37.17
59411;BME280;45215;32.610;-115.482;2022-08-03T04:06:15;100752.94;;;20.63;36.15
59411;BME280;45215;32.610;-115.482;2022-08-03T04:09:10;100764.91;;;21.22;44.59
59411;BME280;45215;32.610;-115.482;2022-08-03T04:11:55;100766.50;;;21.16;38.67
59411;BME280;45215;32.610;-115.482;2022-08-03T04:14:31;100760.69;;;20.81;36.75
59411;BME280;45215;32.610;-115.482;2022-08-03T04:16:58;100762.38;;;20.59;38.30
59411;BME280;45215;32.610;-115.482;2022-08-03T04:19:29;100774.41;;;21.17;44.52
59411;BME280;45215;32.610;-115.482;2022-08-03T04:21:57;100767.34;;;21.16;39.32
59411;BME280;45215;32.610;-115.482;2022-08-03T04:24:24;100763.59;;;20.80;36.88
59411;BME280;45215;32.610;-115.482;2022-08-03T04:26:52;100759.41;;;20.54;36.40
59411;BME280;45215;32.610;-115.482;2022-08-03T04:29:18;100765.25;;;21.04;44.05
59411;BME280;45215;32.610;-115.482;2022-08-03T04:31:45;100772.84;;;21.23;39.33
59411;BME280;45215;32.610;-115.482;2022-08-03T04:34:11;100769.25;;;20.85;37.05
59411;BME280;45215;32.610;-115.482;2022-08-03T04:36:38;100767.28;;;20.56;35.68
59411;BME280;45215;32.610;-115.482;2022-08-03T04:39:09;100766.66;;;20.77;41.00
59411;BME280;45215;32.610;-115.482;2022-08-03T04:41:37;100771.78;;;21.09;39.68
59411;BME280;45215;32.610;-115.482;2022-08-03T04:44:04;100766.50;;;20.70;37.16
59411;BME280;45215;32.610;-115.482;2022-08-03T04:46:32;100767.06;;;20.42;35.94
59411;BME280;45215;32.610;-115.482;2022-08-03T04:48:59;100767.75;;;20.59;40.37
59411;BME280;45215;32.610;-115.482;2022-08-03T04:51:25;100773.00;;;21.07;39.95
59411;BME280;45215;32.610;-115.482;2022-08-03T04:53:51;100780.50;;;20.74;36.99
59411;BME280;45215;32.610;-115.482;2022-08-03T04:56:17;100768.72;;;20.43;35.52
59411;BME280;45215;32.610;-115.482;2022-08-03T04:58:43;100772.72;;;20.47;37.85
59411;BME280;45215;32.610;-115.482;2022-08-03T05:01:09;100775.91;;;20.97;40.16
59411;BME280;45215;32.610;-115.482;2022-08-03T05:03:35;100773.88;;;20.76;36.91
59411;BME280;45215;32.610;-115.482;2022-08-03T05:06:01;100778.66;;;20.43;35.49
59411;BME280;45215;32.610;-115.482;2022-08-03T05:08:27;100769.44;;;20.37;36.97
59411;BME280;45215;32.610;-115.482;2022-08-03T05:10:53;100788.25;;;20.91;42.06
59411;BME280;45215;32.610;-115.482;2022-08-03T05:13:19;100782.16;;;21.35;40.16
59411;BME280;45215;32.610;-115.482;2022-08-03T05:15:45;100788.84;;;21.02;37.06
59411;BME280;45215;32.610;-115.482;2022-08-03T05:18:11;100782.38;;;20.65;35.63
59411;BME280;45215;32.610;-115.482;2022-08-03T05:20:36;100786.56;;;20.67;40.89
59411;BME280;45215;32.610;-115.482;2022-08-03T05:23:02;100795.81;;;21.19;40.77
59411;BME280;45215;32.610;-115.482;2022-08-03T05:25:28;100792.53;;;20.86;37.30
59411;BME280;45215;32.610;-115.482;2022-08-03T05:27:54;100788.25;;;20.45;35.51
59411;BME280;45215;32.610;-115.482;2022-08-03T05:30:20;100795.19;;;20.40;37.21
59411;BME280;45215;32.610;-115.482;2022-08-03T05:32:46;100801.50;;;21.01;42.61
59411;BME280;45215;32.610;-115.482;2022-08-03T05:35:12;100799.09;;;21.44;40.87
59411;BME280;45215;32.610;-115.482;2022-08-03T05:37:38;100789.19;;;20.99;37.73
59411;BME280;45215;32.610;-115.482;2022-08-03T05:40:04;100781.91;;;20.61;36.24
59411;BME280;45215;32.610;-115.482;2022-08-03T05:42:30;100791.19;;;20.59;41.09
59411;BME280;45215;32.610;-115.482;2022-08-03T05:44:55;100793.97;;;21.20;42.51
59411;BME280;45215;32.610;-115.482;2022-08-03T05:47:21;100798.03;;;20.92;38.16
59411;BME280;45215;32.610;-115.482;2022-08-03T05:49:47;100795.44;;;20.53;36.20
59411;BME280;45215;32.610;-115.482;2022-08-03T05:52:13;100805.97;;;20.40;39.02
59411;BME280;45215;32.610;-115.482;2022-08-03T05:54:38;100814.97;;;21.24;44.44
59411;BME280;45215;32.610;-115.482;2022-08-03T05:57:04;100806.88;;;21.24;38.89
59411;BME280;45215;32.610;-115.482;2022-08-03T05:59:30;100807.72;;;21.02;36.46
59411;BME280;45215;32.610;-115.482;2022-08-03T06:01:56;100806.84;;;20.63;36.57
59411;BME280;45215;32.610;-115.482;2022-08-03T06:04:21;100815.69;;;21.03;44.73
59411;BME280;45215;32.610;-115.482;2022-08-03T06:06:47;100824.00;;;21.16;39.55
59411;BME280;45215;32.610;-115.482;2022-08-03T06:09:15;100817.88;;;20.77;37.48
59411;BME280;45215;32.610;-115.482;2022-08-03T06:11:41;100819.56;;;20.46;35.84
59411;BME280;45215;32.610;-115.482;2022-08-03T06:14:06;100821.56;;;20.76;44.18
59411;BME280;45215;32.610;-115.482;2022-08-03T06:16:32;100826.88;;;21.15;41.03
59411;BME280;45215;32.610;-115.482;2022-08-03T06:18:59;100823.78;;;20.72;37.65
59411;BME280;45215;32.610;-115.482;2022-08-03T06:21:25;100826.84;;;20.38;36.29
59411;BME280;45215;32.610;-115.482;2022-08-03T06:23:51;100834.31;;;20.59;42.25
59411;BME280;45215;32.610;-115.482;2022-08-03T06:26:16;100829.94;;;21.12;41.84
59411;BME280;45215;32.610;-115.482;2022-08-03T06:28:43;100831.09;;;20.86;37.43
59411;BME280;45215;32.610;-115.482;2022-08-03T06:31:09;100833.03;;;20.46;36.45
59411;BME280;45215;32.610;-115.482;2022-08-03T06:33:35;100832.75;;;20.33;38.41
59411;BME280;45215;32.610;-115.482;2022-08-03T06:36:00;100836.34;;;20.88;42.18
59411;BME280;45215;32.610;-115.482;2022-08-03T06:38:26;100835.25;;;21.20;40.93
59411;BME280;45215;32.610;-115.482;2022-08-03T06:40:53;100839.13;;;21.03;38.47
59411;BME280;45215;32.610;-115.482;2022-08-03T06:43:19;100836.53;;;20.78;37.76
59411;BME280;45215;32.610;-115.482;2022-08-03T06:45:45;100830.28;;;20.86;43.71
59411;BME280;45215;32.610;-115.482;2022-08-03T06:48:11;100818.56;;;21.39;43.54
59411;BME280;45215;32.610;-115.482;2022-08-03T06:50:37;100814.03;;;20.94;39.70
59411;BME280;45215;32.610;-115.482;2022-08-03T06:53:04;100803.03;;;20.49;38.09
59411;BME280;45215;32.610;-115.482;2022-08-03T06:55:30;100804.81;;;20.34;42.02
59411;BME280;45215;32.610;-115.482;2022-08-03T06:57:56;100801.69;;;21.00;45.68
59411;BME280;45215;32.610;-115.482;2022-08-03T07:00:22;100803.19;;;20.79;40.23
59411;BME280;45215;32.610;-115.482;2022-08-03T07:02:48;100799.25;;;20.36;37.85
59411;BME280;45215;32.610;-115.482;2022-08-03T07:05:14;100798.00;;;20.15;38.67
59411;BME280;45215;32.610;-115.482;2022-08-03T07:07:40;100800.41;;;20.64;44.20
59411;BME280;45215;32.610;-115.482;2022-08-03T07:10:06;100802.91;;;20.74;39.73
59411;BME280;45215;32.610;-115.482;2022-08-03T07:12:32;100804.09;;;20.40;37.03
59411;BME280;45215;32.610;-115.482;2022-08-03T07:14:59;100799.00;;;20.14;36.04
59411;BME280;45215;32.610;-115.482;2022-08-03T07:17:25;100804.44;;;20.45;41.11
59411;BME280;45215;32.610;-115.482;2022-08-03T07:19:50;100809.47;;;20.94;44.31
59411;BME280;45215;32.610;-115.482;2022-08-03T07:22:16;100815.16;;;21.00;39.99
59411;BME280;45215;32.610;-115.482;2022-08-03T07:24:42;100812.47;;;20.54;37.51
59411;BME280;45215;32.610;-115.482;2022-08-03T07:27:08;100809.25;;;20.19;36.30
59411;BME280;45215;32.610;-115.482;2022-08-03T07:29:35;100804.06;;;20.48;40.58
59411;BME280;45215;32.610;-115.482;2022-08-03T07:32:01;100813.47;;;20.99;43.86
59411;BME280;45215;32.610;-115.482;2022-08-03T07:34:27;100811.88;;;20.89;39.42
59411;BME280;45215;32.610;-115.482;2022-08-03T07:36:54;100806.47;;;20.66;37.61
59411;BME280;45215;32.610;-115.482;2022-08-03T07:39:19;100810.84;;;20.36;36.91
59411;BME280;45215;32.610;-115.482;2022-08-03T07:41:45;100817.38;;;20.73;44.34
59411;BME280;45215;32.610;-115.482;2022-08-03T07:44:12;100819.91;;;21.21;43.65
59411;BME280;45215;32.610;-115.482;2022-08-03T07:46:37;100815.53;;;20.97;39.07
59411;BME280;45215;32.610;-115.482;2022-08-03T07:49:03;100819.84;;;20.60;37.98
59411;BME280;45215;32.610;-115.482;2022-08-03T07:51:29;100819.88;;;20.52;44.46
59411;BME280;45215;32.610;-115.482;2022-08-03T07:53:55;100817.97;;;20.83;43.26
59411;BME280;45215;32.610;-115.482;2022-08-03T07:56:22;100812.84;;;20.74;39.70
59411;BME280;45215;32.610;-115.482;2022-08-03T07:58:49;100817.50;;;20.57;38.02
59411;BME280;45215;32.610;-115.482;2022-08-03T08:01:15;100827.38;;;20.33;38.09
59411;BME280;45215;32.610;-115.482;2022-08-03T08:03:44;100823.47;;;20.67;43.82
59411;BME280;45215;32.610;-115.482;2022-08-03T08:06:10;100832.16;;;21.08;43.80
59411;BME280;45215;32.610;-115.482;2022-08-03T08:08:36;100823.38;;;20.83;39.61
59411;BME280;45215;32.610;-115.482;2022-08-03T08:11:02;100828.84;;;20.44;37.93
59411;BME280;45215;32.610;-115.482;2022-08-03T08:13:28;100824.91;;;20.23;38.65
59411;BME280;45215;32.610;-115.482;2022-08-03T08:15:54;100834.25;;;20.67;44.63
59411;BME280;45215;32.610;-115.482;2022-08-03T08:18:20;100831.66;;;21.05;43.18
59411;BME280;45215;32.610;-115.482;2022-08-03T08:20:46;100825.28;;;20.75;39.55
59411;BME280;45215;32.610;-115.482;2022-08-03T08:23:12;100819.59;;;20.38;37.94
59411;BME280;45215;32.610;-115.482;2022-08-03T08:25:37;100823.41;;;20.21;38.79
59411;BME280;45215;32.610;-115.482;2022-08-03T08:28:03;100832.59;;;20.66;43.91
59411;BME280;45215;32.610;-115.482;2022-08-03T08:30:32;100827.16;;;20.97;42.46
59411;BME280;45215;32.610;-115.482;2022-08-03T08:32:58;100819.28;;;20.64;39.43
59411;BME280;45215;32.610;-115.482;2022-08-03T08:35:24;100820.66;;;20.29;37.93
59411;BME280;45215;32.610;-115.482;2022-08-03T08:37:50;100819.69;;;20.22;40.19
59411;BME280;45215;32.610;-115.482;2022-08-03T08:40:16;100825.81;;;20.70;45.36
59411;BME280;45215;32.610;-115.482;2022-08-03T08:42:43;100828.66;;;21.00;42.52
59411;BME280;45215;32.610;-115.482;2022-08-03T08:45:09;100823.00;;;20.63;39.65
59411;BME280;45215;32.610;-115.482;2022-08-03T08:47:37;100832.28;;;20.30;37.77
59411;BME280;45215;32.610;-115.482;2022-08-03T08:50:04;100824.06;;;20.23;40.07
59411;BME280;45215;32.610;-115.482;2022-08-03T08:52:32;100820.72;;;20.75;46.30
59411;BME280;45215;32.610;-115.482;2022-08-03T08:54:59;100822.97;;;20.94;41.98
59411;BME280;45215;32.610;-115.482;2022-08-03T08:57:29;100818.44;;;20.64;40.16
59411;BME280;45215;32.610;-115.482;2022-08-03T08:59:55;100814.56;;;20.35;38.78
59411;BME280;45215;32.610;-115.482;2022-08-03T09:02:25;100818.53;;;20.47;43.60
59411;BME280;45215;32.610;-115.482;2022-08-03T09:04:53;100823.53;;;20.82;41.47
59411;BME280;45215;32.610;-115.482;2022-08-03T09:07:19;100823.28;;;20.45;39.15
59411;BME280;45215;32.610;-115.482;2022-08-03T09:09:45;100821.88;;;20.10;37.94
59411;BME280;45215;32.610;-115.482;2022-08-03T09:12:11;100821.53;;;20.13;41.19
59411;BME280;45215;32.610;-115.482;2022-08-03T09:14:37;100816.53;;;20.72;45.63
59411;BME280;45215;32.610;-115.482;2022-08-03T09:17:02;100821.94;;;20.95;42.13
59411;BME280;45215;32.610;-115.482;2022-08-03T09:19:29;100817.19;;;20.52;39.33
59411;BME280;45215;32.610;-115.482;2022-08-03T09:22:13;100804.53;;;20.13;38.12
59411;BME280;45215;32.610;-115.482;2022-08-03T09:24:56;100814.78;;;20.25;43.04
59411;BME280;45215;32.610;-115.482;2022-08-03T09:27:23;100823.69;;;20.88;46.26
59411;BME280;45215;32.610;-115.482;2022-08-03T09:29:50;100824.03;;;20.85;40.89
59411;BME280;45215;32.610;-115.482;2022-08-03T09:32:18;100822.50;;;20.37;38.68
59411;BME280;45215;32.610;-115.482;2022-08-03T09:34:45;100821.75;;;20.03;37.78
59411;BME280;45215;32.610;-115.482;2022-08-03T09:37:14;100824.03;;;20.31;42.02
59411;BME280;45215;32.610;-115.482;2022-08-03T09:39:41;100828.88;;;20.90;46.25
59411;BME280;45215;32.610;-115.482;2022-08-03T09:42:11;100816.00;;;20.77;40.94
59411;BME280;45215;32.610;-115.482;2022-08-03T09:44:41;100810.38;;;20.33;38.67
59411;BME280;45215;32.610;-115.482;2022-08-03T09:47:08;100811.34;;;20.00;38.04
59411;BME280;45215;32.610;-115.482;2022-08-03T09:49:37;100815.03;;;20.39;43.71
59411;BME280;45215;32.610;-115.482;2022-08-03T09:52:13;100816.91;;;20.92;45.78
59411;BME280;45215;32.610;-115.482;2022-08-03T09:54:39;100806.22;;;20.76;40.71
59411;BME280;45215;32.610;-115.482;2022-08-03T09:57:06;100812.38;;;20.31;38.63
59411;BME280;45215;32.610;-115.482;2022-08-03T09:59:32;100807.63;;;20.01;37.87
59411;BME280;45215;32.610;-115.482;2022-08-03T10:01:58;100814.56;;;20.35;41.97
59411;BME280;45215;32.610;-115.482;2022-08-03T10:04:25;100808.22;;;20.82;45.09
59411;BME280;45215;32.610;-115.482;2022-08-03T10:07:07;100801.44;;;20.63;40.46
59411;BME280;45215;32.610;-115.482;2022-08-03T10:09:33;100801.38;;;20.17;38.23
59411;BME280;45215;32.610;-115.482;2022-08-03T10:12:09;100804.59;;;19.96;38.37
59411;BME280;45215;32.610;-115.482;2022-08-03T10:14:38;100811.34;;;20.40;43.86
59411;BME280;45215;32.610;-115.482;2022-08-03T10:17:04;100815.94;;;20.85;43.89
59411;BME280;45215;32.610;-115.482;2022-08-03T10:19:30;100816.00;;;20.54;39.97
59411;BME280;45215;32.610;-115.482;2022-08-03T10:21:56;100810.75;;;20.13;38.01
59411;BME280;45215;32.610;-115.482;2022-08-03T10:24:27;100811.22;;;19.86;37.97
59411;BME280;45215;32.610;-115.482;2022-08-03T10:26:55;100813.25;;;20.31;42.86
59411;BME280;45215;32.610;-115.482;2022-08-03T10:29:26;100818.03;;;20.75;44.80
59411;BME280;45215;32.610;-115.482;2022-08-03T10:31:53;100814.81;;;20.57;40.49
59411;BME280;45215;32.610;-115.482;2022-08-03T10:34:28;100814.63;;;20.11;38.13
59411;BME280;45215;32.610;-115.482;2022-08-03T10:36:58;100811.03;;;19.87;38.31
59411;BME280;45215;32.610;-115.482;2022-08-03T10:39:26;100810.25;;;20.26;42.14
59411;BME280;45215;32.610;-115.482;2022-08-03T10:41:52;100824.31;;;20.67;44.79
59411;BME280;45215;32.610;-115.482;2022-08-03T10:44:22;100815.84;;;20.47;40.32
59411;BME280;45215;32.610;-115.482;2022-08-03T10:46:48;100811.66;;;20.05;38.33
59411;BME280;45215;32.610;-115.482;2022-08-03T10:49:18;100810.72;;;19.82;38.24
59411;BME280;45215;32.610;-115.482;2022-08-03T10:51:45;100805.22;;;20.23;42.11
59411;BME280;45215;32.610;-115.482;2022-08-03T10:56:55;100802.72;;;20.44;40.30
59411;BME280;45215;32.610;-115.482;2022-08-03T11:02:13;100791.72;;;19.83;39.16
59411;BME280;45215;32.610;-115.482;2022-08-03T11:04:39;100799.47;;;20.26;43.82
59411;BME280;45215;32.610;-115.482;2022-08-03T11:09:43;100799.06;;;20.37;39.92
59411;BME280;45215;32.610;-115.482;2022-08-03T11:12:27;100806.47;;;19.96;37.94
59411;BME280;45215;32.610;-115.482;2022-08-03T11:14:54;100809.72;;;19.83;39.55
59411;BME280;45215;32.610;-115.482;2022-08-03T11:17:20;100805.34;;;20.30;42.75
59411;BME280;45215;32.610;-115.482;2022-08-03T11:19:50;100811.69;;;20.68;43.95
59411;BME280;45215;32.610;-115.482;2022-08-03T11:22:16;100818.28;;;20.34;39.94
59411;BME280;45215;32.610;-115.482;2022-08-03T11:37:35;100810.03;;;19.88;37.87
59411;BME280;45215;32.610;-115.482;2022-08-03T11:40:01;100810.41;;;19.77;38.86
59411;BME280;45215;32.610;-115.482;2022-08-03T11:44:57;100817.63;;;20.63;44.35
59411;BME280;45215;32.610;-115.482;2022-08-03T11:47:24;100821.28;;;20.39;39.94
59411;BME280;45215;32.610;-115.482;2022-08-03T11:49:54;100814.38;;;19.97;38.09
59411;BME280;45215;32.610;-115.482;2022-08-03T11:52:21;100816.78;;;19.76;38.56
59411;BME280;45215;32.610;-115.482;2022-08-03T11:54:50;100814.84;;;20.17;42.99
59411;BME280;45215;32.610;-115.482;2022-08-03T11:57:32;100820.81;;;20.59;44.47
59411;BME280;45215;32.610;-115.482;2022-08-03T11:59:58;100825.34;;;20.35;40.14
59411;BME280;45215;32.610;-115.482;2022-08-03T12:02:24;100827.19;;;19.87;38.24
59411;BME280;45215;32.610;-115.482;2022-08-03T12:04:56;100822.19;;;19.59;38.07
59411;BME280;45215;32.610;-115.482;2022-08-03T12:07:24;100825.47;;;20.02;41.82
59411;BME280;45215;32.610;-115.482;2022-08-03T12:10:06;100827.66;;;20.46;45.29
59411;BME280;45215;32.610;-115.482;2022-08-03T12:12:33;100840.00;;;20.33;40.71
59411;BME280;45215;32.610;-115.482;2022-08-03T12:14:58;100827.50;;;19.92;38.34
59411;BME280;45215;32.610;-115.482;2022-08-03T12:17:45;100827.91;;;19.65;37.64
59411;BME280;45215;32.610;-115.482;2022-08-03T12:20:13;100834.72;;;20.08;42.39
59411;BME280;45215;32.610;-115.482;2022-08-03T12:22:45;100830.31;;;20.55;44.30
59411;BME280;45215;32.610;-115.482;2022-08-03T12:25:18;100844.16;;;20.43;40.91
59411;BME280;45215;32.610;-115.482;2022-08-03T12:27:44;100848.53;;;19.97;38.37
59411;BME280;45215;32.610;-115.482;2022-08-03T12:30:10;100846.75;;;19.65;37.68
59411;BME280;45215;32.610;-115.482;2022-08-03T12:32:36;100847.69;;;19.96;41.76
59411;BME280;45215;32.610;-115.482;2022-08-03T12:35:02;100845.19;;;20.42;44.63
59411;BME280;45215;32.610;-115.482;2022-08-03T12:37:30;100838.91;;;20.50;42.03
59411;BME280;45215;32.610;-115.482;2022-08-03T12:39:56;100847.22;;;20.40;43.54
59411;BME280;45215;32.610;-115.482;2022-08-03T12:42:29;100845.31;;;20.80;48.63
59411;BME280;45215;32.610;-115.482;2022-08-03T12:44:55;100865.97;;;21.19;50.65
59411;BME280;45215;32.610;-115.482;2022-08-03T12:47:21;100864.38;;;21.48;50.74
59411;BME280;45215;32.610;-115.482;2022-08-03T12:49:47;100855.94;;;21.66;52.83
59411;BME280;45215;32.610;-115.482;2022-08-03T12:52:14;100867.97;;;21.93;51.32
59411;BME280;45215;32.610;-115.482;2022-08-03T12:54:40;100874.34;;;22.15;52.47
59411;BME280;45215;32.610;-115.482;2022-08-03T12:57:07;100874.44;;;22.36;52.12
59411;BME280;45215;32.610;-115.482;2022-08-03T12:59:41;100878.88;;;22.44;52.45